sensor_id;sensor_type;location;lat;lon;timestamp;P1;durP1;ratioP1;P2;durP2;ratioP2
58896;SDS011;44677;52.378;10.400;2024-02-04T00:00:28;7.30;;;4.30;;
58896;SDS011;44677;52.378;10.400;2024-02-04T00:02:53;9.80;;;4.70;;
58896;SDS011;44677;52.378;10.400;2024-02-04T00:05:18;6.40;;;5.20;;
58896;SDS011;44677;52.378;10.400;2024-02-04T00:07:44;7.50;;;4.90;;
58896;SDS011;44677;52.378;10.400;2024-02-04T00:10:10;9.00;;;5.00;;
58896;SDS011;44677;52.378;10.400;2024-02-04T00:12:36;5.70;;;4.90;;
58896;SDS011;44677;52.378;10.400;2024-02-04T00:15:02;10.00;;;5.10;;
58896;SDS011;44677;52.378;10.400;2024-02-04T00:17:29;10.50;;;5.10;;
58896;SDS011;44677;52.378;10.400;2024-02-04T00:19:58;8.50;;;5.10;;
58896;SDS011;44677;52.378;10.400;2024-02-04T00:22:27;10.60;;;5.10;;
58896;SDS011;44677;52.378;10.400;2024-02-04T00:24:52;8.60;;;5.30;;
58896;SDS011;44677;52.378;10.400;2024-02-04T00:27:18;6.50;;;4.90;;
58896;SDS011;44677;52.378;10.400;2024-02-04T00:29:43;7.00;;;4.50;;
58896;SDS011;44677;52.378;10.400;2024-02-04T00:32:09;7.80;;;4.50;;
58896;SDS011;44677;52.378;10.400;2024-02-04T00:34:34;7.10;;;4.70;;
58896;SDS011;44677;52.378;10.400;2024-02-04T00:36:59;8.60;;;4.50;;
58896;SDS011;44677;52.378;10.400;2024-02-04T00:39:25;7.70;;;4.30;;
58896;SDS011;44677;52.378;10.400;2024-02-04T00:41:51;6.90;;;5.00;;
58896;SDS011;44677;52.378;10.400;2024-02-04T00:44:16;6.00;;;4.40;;
58896;SDS011;44677;52.378;10.400;2024-02-04T00:46:42;7.10;;;4.40;;
58896;SDS011;44677;52.378;10.400;2024-02-04T00:49:07;9.00;;;4.50;;
58896;SDS011;44677;52.378;10.400;2024-02-04T00:51:33;8.20;;;4.50;;
58896;SDS011;44677;52.378;10.400;2024-02-04T00:53:58;7.00;;;4.60;;
58896;SDS011;44677;52.378;10.400;2024-02-04T00:56:24;4.90;;;4.20;;
58896;SDS011;44677;52.378;10.400;2024-02-04T00:58:49;10.80;;;5.80;;
58896;SDS011;44677;52.378;10.400;2024-02-04T01:01:15;6.00;;;4.40;;
58896;SDS011;44677;52.378;10.400;2024-02-04T01:03:40;10.60;;;5.10;;
58896;SDS011;44677;52.378;10.400;2024-02-04T01:06:05;6.10;;;4.70;;
58896;SDS011;44677;52.378;10.400;2024-02-04T01:08:31;7.10;;;4.30;;
58896;SDS011;44677;52.378;10.400;2024-02-04T01:10:56;7.90;;;4.40;;
58896;SDS011;44677;52.378;10.400;2024-02-04T01:13:22;6.60;;;4.10;;
58896;SDS011;44677;52.378;10.400;2024-02-04T01:15:47;9.00;;;4.80;;
58896;SDS011;44677;52.378;10.400;2024-02-04T01:18:13;10.30;;;4.90;;
58896;SDS011;44677;52.378;10.400;2024-02-04T01:20:38;8.40;;;4.50;;
58896;SDS011;44677;52.378;10.400;2024-02-04T01:23:04;7.70;;;4.50;;
58896;SDS011;44677;52.378;10.400;2024-02-04T01:25:29;8.70;;;4.90;;
58896;SDS011;44677;52.378;10.400;2024-02-04T01:27:54;6.50;;;4.70;;
58896;SDS011;44677;52.378;10.400;2024-02-04T01:30:20;7.60;;;5.30;;
58896;SDS011;44677;52.378;10.400;2024-02-04T01:32:46;5.70;;;4.60;;
58896;SDS011;44677;52.378;10.400;2024-02-04T01:35:11;7.60;;;4.60;;
58896;SDS011;44677;52.378;10.400;2024-02-04T01:37:37;8.00;;;4.70;;
58896;SDS011;44677;52.378;10.400;2024-02-04T01:40:03;8.70;;;5.70;;
58896;SDS011;44677;52.378;10.400;2024-02-04T01:42:30;9.90;;;5.00;;
58896;SDS011;44677;52.378;10.400;2024-02-04T01:44:56;7.80;;;4.90;;
58896;SDS011;44677;52.378;10.400;2024-02-04T01:47:21;10.80;;;5.00;;
58896;SDS011;44677;52.378;10.400;2024-02-04T01:49:47;6.20;;;5.20;;
58896;SDS011;44677;52.378;10.400;2024-02-04T01:52:12;7.90;;;5.30;;
58896;SDS011;44677;52.378;10.400;2024-02-04T01:54:38;10.60;;;5.20;;
58896;SDS011;44677;52.378;10.400;2024-02-04T01:57:05;7.50;;;5.20;;
58896;SDS011;44677;52.378;10.400;2024-02-04T01:59:31;6.90;;;4.80;;
58896;SDS011;44677;52.378;10.400;2024-02-04T02:02:00;10.70;;;5.30;;
58896;SDS011;44677;52.378;10.400;2024-02-04T02:04:26;11.70;;;5.40;;
58896;SDS011;44677;52.378;10.400;2024-02-04T02:06:54;10.80;;;5.40;;
58896;SDS011;44677;52.378;10.400;2024-02-04T02:09:20;11.00;;;5.30;;
58896;SDS011;44677;52.378;10.400;2024-02-04T02:11:47;7.20;;;5.50;;
58896;SDS011;44677;52.378;10.400;2024-02-04T02:14:18;6.90;;;5.20;;
58896;SDS011;44677;52.378;10.400;2024-02-04T02:16:45;9.70;;;5.20;;
58896;SDS011;44677;52.378;10.400;2024-02-04T02:24:38;8.70;;;5.10;;
58896;SDS011;44677;52.378;10.400;2024-02-04T02:27:07;6.00;;;4.60;;
58896;SDS011;44677;52.378;10.400;2024-02-04T02:29:32;8.60;;;4.70;;
58896;SDS011;44677;52.378;10.400;2024-02-04T02:31:58;8.40;;;5.40;;
58896;SDS011;44677;52.378;10.400;2024-02-04T02:34:24;6.90;;;5.20;;
58896;SDS011;44677;52.378;10.400;2024-02-04T02:36:55;10.00;;;5.60;;
58896;SDS011;44677;52.378;10.400;2024-02-04T02:39:31;8.60;;;5.50;;
58896;SDS011;44677;52.378;10.400;2024-02-04T02:41:59;9.70;;;5.30;;
58896;SDS011;44677;52.378;10.400;2024-02-04T02:44:25;10.80;;;6.10;;
58896;SDS011;44677;52.378;10.400;2024-02-04T02:46:51;10.80;;;6.10;;
58896;SDS011;44677;52.378;10.400;2024-02-04T02:49:18;10.10;;;6.40;;
58896;SDS011;44677;52.378;10.400;2024-02-04T02:51:43;12.20;;;6.40;;
58896;SDS011;44677;52.378;10.400;2024-02-04T02:54:09;11.70;;;6.50;;
58896;SDS011;44677;52.378;10.400;2024-02-04T02:56:34;10.40;;;7.10;;
58896;SDS011;44677;52.378;10.400;2024-02-04T02:59:00;10.50;;;7.00;;
58896;SDS011;44677;52.378;10.400;2024-02-04T03:01:25;12.30;;;7.30;;
58896;SDS011;44677;52.378;10.400;2024-02-04T03:03:51;10.90;;;6.80;;
58896;SDS011;44677;52.378;10.400;2024-02-04T03:06:16;13.70;;;7.00;;
58896;SDS011;44677;52.378;10.400;2024-02-04T03:08:41;12.20;;;6.80;;
58896;SDS011;44677;52.378;10.400;2024-02-04T03:11:07;10.90;;;7.40;;
58896;SDS011;44677;52.378;10.400;2024-02-04T03:13:32;10.50;;;7.40;;
58896;SDS011;44677;52.378;10.400;2024-02-04T03:15:58;11.40;;;7.00;;
58896;SDS011;44677;52.378;10.400;2024-02-04T03:18:24;12.70;;;7.30;;
58896;SDS011;44677;52.378;10.400;2024-02-04T03:20:49;13.20;;;7.60;;
58896;SDS011;44677;52.378;10.400;2024-02-04T03:23:14;15.30;;;7.70;;
58896;SDS011;44677;52.378;10.400;2024-02-04T03:25:40;13.40;;;7.90;;
58896;SDS011;44677;52.378;10.400;2024-02-04T03:28:06;10.90;;;7.00;;
58896;SDS011;44677;52.378;10.400;2024-02-04T03:30:31;11.60;;;8.20;;
58896;SDS011;44677;52.378;10.400;2024-02-04T03:32:57;12.10;;;6.60;;
58896;SDS011;44677;52.378;10.400;2024-02-04T03:35:22;12.30;;;7.30;;
58896;SDS011;44677;52.378;10.400;2024-02-04T03:37:47;12.20;;;7.50;;
58896;SDS011;44677;52.378;10.400;2024-02-04T03:40:13;10.70;;;6.80;;
58896;SDS011;44677;52.378;10.400;2024-02-04T03:42:38;13.50;;;7.60;;
58896;SDS011;44677;52.378;10.400;2024-02-04T03:45:05;11.40;;;7.00;;
58896;SDS011;44677;52.378;10.400;2024-02-04T03:47:31;12.80;;;7.10;;
58896;SDS011;44677;52.378;10.400;2024-02-04T03:49:57;13.50;;;7.20;;
58896;SDS011;44677;52.378;10.400;2024-02-04T03:52:22;9.60;;;6.00;;
58896;SDS011;44677;52.378;10.400;2024-02-04T03:54:47;11.10;;;7.30;;
58896;SDS011;44677;52.378;10.400;2024-02-04T03:57:13;12.20;;;6.90;;
58896;SDS011;44677;52.378;10.400;2024-02-04T03:59:38;11.60;;;6.60;;
58896;SDS011;44677;52.378;10.400;2024-02-04T04:02:04;11.00;;;6.30;;
58896;SDS011;44677;52.378;10.400;2024-02-04T04:04:29;12.40;;;6.50;;
58896;SDS011;44677;52.378;10.400;2024-02-04T04:06:54;9.70;;;6.30;;
58896;SDS011;44677;52.378;10.400;2024-02-04T04:09:20;11.80;;;6.60;;
58896;SDS011;44677;52.378;10.400;2024-02-04T04:11:45;11.00;;;6.20;;
58896;SDS011;44677;52.378;10.400;2024-02-04T04:14:11;8.80;;;6.10;;
58896;SDS011;44677;52.378;10.400;2024-02-04T04:16:36;9.10;;;5.90;;
58896;SDS011;44677;52.378;10.400;2024-02-04T04:19:01;14.20;;;6.70;;
58896;SDS011;44677;52.378;10.400;2024-02-04T04:21:27;9.70;;;6.00;;
58896;SDS011;44677;52.378;10.400;2024-02-04T04:23:52;10.00;;;6.30;;
58896;SDS011;44677;52.378;10.400;2024-02-04T04:26:18;11.50;;;5.80;;
58896;SDS011;44677;52.378;10.400;2024-02-04T04:28:43;9.70;;;5.60;;
58896;SDS011;44677;52.378;10.400;2024-02-04T04:31:09;7.60;;;5.80;;
58896;SDS011;44677;52.378;10.400;2024-02-04T04:33:35;11.00;;;6.30;;
58896;SDS011;44677;52.378;10.400;2024-02-04T04:36:01;9.30;;;6.30;;
58896;SDS011;44677;52.378;10.400;2024-02-04T04:38:26;9.00;;;6.50;;
58896;SDS011;44677;52.378;10.400;2024-02-04T04:40:52;7.40;;;6.20;;
58896;SDS011;44677;52.378;10.400;2024-02-04T04:43:17;8.20;;;5.90;;
58896;SDS011;44677;52.378;10.400;2024-02-04T04:45:42;8.70;;;5.90;;
58896;SDS011;44677;52.378;10.400;2024-02-04T04:48:08;10.60;;;6.20;;
58896;SDS011;44677;52.378;10.400;2024-02-04T04:50:34;9.50;;;5.70;;
58896;SDS011;44677;52.378;10.400;2024-02-04T04:52:59;10.10;;;5.20;;
58896;SDS011;44677;52.378;10.400;2024-02-04T04:55:24;13.20;;;5.70;;
58896;SDS011;44677;52.378;10.400;2024-02-04T04:57:50;11.40;;;5.10;;
58896;SDS011;44677;52.378;10.400;2024-02-04T05:00:17;8.40;;;5.00;;
58896;SDS011;44677;52.378;10.400;2024-02-04T05:02:43;11.50;;;5.40;;
58896;SDS011;44677;52.378;10.400;2024-02-04T05:05:10;10.80;;;4.90;;
58896;SDS011;44677;52.378;10.400;2024-02-04T05:10:01;9.30;;;4.80;;
58896;SDS011;44677;52.378;10.400;2024-02-04T05:12:26;9.30;;;5.00;;
58896;SDS011;44677;52.378;10.400;2024-02-04T05:14:52;7.80;;;4.30;;
58896;SDS011;44677;52.378;10.400;2024-02-04T05:17:17;8.50;;;4.40;;
58896;SDS011;44677;52.378;10.400;2024-02-04T05:19:43;9.50;;;4.80;;
58896;SDS011;44677;52.378;10.400;2024-02-04T05:22:08;9.30;;;4.70;;
58896;SDS011;44677;52.378;10.400;2024-02-04T05:24:34;8.50;;;4.80;;
58896;SDS011;44677;52.378;10.400;2024-02-04T05:26:59;10.20;;;4.70;;
58896;SDS011;44677;52.378;10.400;2024-02-04T05:29:24;10.10;;;4.70;;
58896;SDS011;44677;52.378;10.400;2024-02-04T05:31:50;6.90;;;4.70;;
58896;SDS011;44677;52.378;10.400;2024-02-04T05:34:15;10.10;;;5.20;;
58896;SDS011;44677;52.378;10.400;2024-02-04T05:36:41;8.70;;;4.90;;
58896;SDS011;44677;52.378;10.400;2024-02-04T05:39:14;13.80;;;5.20;;
58896;SDS011;44677;52.378;10.400;2024-02-04T05:41:40;9.80;;;5.20;;
58896;SDS011;44677;52.378;10.400;2024-02-04T05:44:06;10.20;;;5.50;;
58896;SDS011;44677;52.378;10.400;2024-02-04T05:46:34;7.50;;;5.00;;
58896;SDS011;44677;52.378;10.400;2024-02-04T05:49:00;9.30;;;5.10;;
58896;SDS011;44677;52.378;10.400;2024-02-04T05:51:25;10.70;;;5.90;;
58896;SDS011;44677;52.378;10.400;2024-02-04T05:53:51;11.50;;;4.90;;
58896;SDS011;44677;52.378;10.400;2024-02-04T05:56:16;9.00;;;5.70;;
58896;SDS011;44677;52.378;10.400;2024-02-04T05:58:41;10.40;;;5.40;;
58896;SDS011;44677;52.378;10.400;2024-02-04T06:01:07;10.90;;;5.70;;
58896;SDS011;44677;52.378;10.400;2024-02-04T06:03:33;9.90;;;5.80;;
58896;SDS011;44677;52.378;10.400;2024-02-04T06:05:58;15.00;;;6.90;;
58896;SDS011;44677;52.378;10.400;2024-02-04T06:08:23;13.30;;;6.50;;
58896;SDS011;44677;52.378;10.400;2024-02-04T06:10:49;13.50;;;6.20;;
58896;SDS011;44677;52.378;10.400;2024-02-04T06:13:14;10.80;;;5.90;;
58896;SDS011;44677;52.378;10.400;2024-02-04T06:15:39;11.40;;;6.20;;
58896;SDS011;44677;52.378;10.400;2024-02-04T06:18:05;12.70;;;6.10;;
58896;SDS011;44677;52.378;10.400;2024-02-04T06:20:30;13.80;;;6.70;;
58896;SDS011;44677;52.378;10.400;2024-02-04T06:22:56;12.20;;;6.10;;
58896;SDS011;44677;52.378;10.400;2024-02-04T06:27:48;13.50;;;6.90;;
58896;SDS011;44677;52.378;10.400;2024-02-04T06:30:13;10.30;;;6.80;;
58896;SDS011;44677;52.378;10.400;2024-02-04T06:32:39;13.00;;;6.40;;
58896;SDS011;44677;52.378;10.400;2024-02-04T06:35:05;15.90;;;7.90;;
58896;SDS011;44677;52.378;10.400;2024-02-04T06:37:30;14.90;;;7.40;;
58896;SDS011;44677;52.378;10.400;2024-02-04T06:39:56;14.00;;;6.80;;
58896;SDS011;44677;52.378;10.400;2024-02-04T06:42:21;16.10;;;6.90;;
58896;SDS011;44677;52.378;10.400;2024-02-04T06:44:46;10.90;;;6.80;;
58896;SDS011;44677;52.378;10.400;2024-02-04T06:47:12;14.00;;;6.30;;
58896;SDS011;44677;52.378;10.400;2024-02-04T06:49:39;14.30;;;7.30;;
58896;SDS011;44677;52.378;10.400;2024-02-04T06:52:13;13.50;;;7.00;;
58896;SDS011;44677;52.378;10.400;2024-02-04T06:54:39;10.20;;;6.30;;
58896;SDS011;44677;52.378;10.400;2024-02-04T06:57:04;14.00;;;6.80;;
58896;SDS011;44677;52.378;10.400;2024-02-04T06:59:29;11.10;;;7.40;;
58896;SDS011;44677;52.378;10.400;2024-02-04T07:01:55;12.80;;;6.30;;
58896;SDS011;44677;52.378;10.400;2024-02-04T07:04:20;11.80;;;6.50;;
58896;SDS011;44677;52.378;10.400;2024-02-04T07:06:49;9.90;;;5.80;;
58896;SDS011;44677;52.378;10.400;2024-02-04T07:09:16;10.70;;;5.90;;
58896;SDS011;44677;52.378;10.400;2024-02-04T07:11:41;10.70;;;5.70;;
58896;SDS011;44677;52.378;10.400;2024-02-04T07:14:07;9.50;;;5.30;;
58896;SDS011;44677;52.378;10.400;2024-02-04T07:16:33;11.00;;;5.00;;
58896;SDS011;44677;52.378;10.400;2024-02-04T07:18:59;7.60;;;4.40;;
58896;SDS011;44677;52.378;10.400;2024-02-04T07:21:24;8.20;;;4.50;;
58896;SDS011;44677;52.378;10.400;2024-02-04T07:23:50;10.60;;;5.00;;
58896;SDS011;44677;52.378;10.400;2024-02-04T07:26:15;9.10;;;4.70;;
58896;SDS011;44677;52.378;10.400;2024-02-04T07:28:41;7.60;;;4.20;;
58896;SDS011;44677;52.378;10.400;2024-02-04T07:31:06;7.70;;;4.50;;
58896;SDS011;44677;52.378;10.400;2024-02-04T07:33:32;7.00;;;4.10;;
58896;SDS011;44677;52.378;10.400;2024-02-04T07:36:00;7.30;;;3.90;;
58896;SDS011;44677;52.378;10.400;2024-02-04T07:38:25;5.70;;;3.20;;
58896;SDS011;44677;52.378;10.400;2024-02-04T07:40:50;5.80;;;3.40;;
58896;SDS011;44677;52.378;10.400;2024-02-04T07:43:16;10.70;;;3.40;;
58896;SDS011;44677;52.378;10.400;2024-02-04T07:45:42;5.30;;;3.70;;
58896;SDS011;44677;52.378;10.400;2024-02-04T07:48:07;8.30;;;3.50;;
58896;SDS011;44677;52.378;10.400;2024-02-04T07:50:34;7.80;;;3.50;;
58896;SDS011;44677;52.378;10.400;2024-02-04T07:53:00;5.60;;;3.50;;
58896;SDS011;44677;52.378;10.400;2024-02-04T07:55:25;5.90;;;3.60;;
58896;SDS011;44677;52.378;10.400;2024-02-04T07:57:50;6.70;;;3.70;;
58896;SDS011;44677;52.378;10.400;2024-02-04T08:00:16;6.20;;;3.50;;
58896;SDS011;44677;52.378;10.400;2024-02-04T08:02:43;9.50;;;3.20;;
58896;SDS011;44677;52.378;10.400;2024-02-04T08:05:09;5.10;;;3.20;;
58896;SDS011;44677;52.378;10.400;2024-02-04T08:07:35;5.70;;;3.40;;
58896;SDS011;44677;52.378;10.400;2024-02-04T08:10:00;8.90;;;3.70;;
58896;SDS011;44677;52.378;10.400;2024-02-04T08:12:25;7.20;;;3.20;;
58896;SDS011;44677;52.378;10.400;2024-02-04T08:14:51;5.10;;;2.80;;
58896;SDS011;44677;52.378;10.400;2024-02-04T08:17:16;7.60;;;3.20;;
58896;SDS011;44677;52.378;10.400;2024-02-04T08:19:42;10.10;;;3.00;;
58896;SDS011;44677;52.378;10.400;2024-02-04T08:22:12;5.20;;;2.90;;
58896;SDS011;44677;52.378;10.400;2024-02-04T08:24:38;5.10;;;3.20;;
58896;SDS011;44677;52.378;10.400;2024-02-04T08:27:04;7.80;;;3.00;;
58896;SDS011;44677;52.378;10.400;2024-02-04T08:29:30;7.60;;;3.20;;
58896;SDS011;44677;52.378;10.400;2024-02-04T08:31:55;5.80;;;2.90;;
58896;SDS011;44677;52.378;10.400;2024-02-04T08:34:21;5.80;;;2.90;;
58896;SDS011;44677;52.378;10.400;2024-02-04T08:36:49;3.50;;;2.30;;
58896;SDS011;44677;52.378;10.400;2024-02-04T08:39:15;4.70;;;2.90;;
58896;SDS011;44677;52.378;10.400;2024-02-04T08:41:41;7.20;;;2.60;;
58896;SDS011;44677;52.378;10.400;2024-02-04T08:44:06;7.90;;;2.90;;
58896;SDS011;44677;52.378;10.400;2024-02-04T08:46:32;4.70;;;2.60;;
58896;SDS011;44677;52.378;10.400;2024-02-04T08:48:57;5.10;;;2.30;;
58896;SDS011;44677;52.378;10.400;2024-02-04T08:51:23;6.80;;;2.50;;
58896;SDS011;44677;52.378;10.400;2024-02-04T08:53:48;6.40;;;2.60;;
58896;SDS011;44677;52.378;10.400;2024-02-04T08:56:14;4.60;;;2.30;;
58896;SDS011;44677;52.378;10.400;2024-02-04T08:58:39;5.90;;;2.80;;
58896;SDS011;44677;52.378;10.400;2024-02-04T09:01:05;5.50;;;2.50;;
58896;SDS011;44677;52.378;10.400;2024-02-04T09:03:30;6.50;;;2.30;;
58896;SDS011;44677;52.378;10.400;2024-02-04T09:05:56;4.90;;;2.40;;
58896;SDS011;44677;52.378;10.400;2024-02-04T09:08:22;6.20;;;2.60;;
58896;SDS011;44677;52.378;10.400;2024-02-04T09:10:47;6.00;;;2.50;;
58896;SDS011;44677;52.378;10.400;2024-02-04T09:13:13;6.50;;;2.60;;
58896;SDS011;44677;52.378;10.400;2024-02-04T09:15:38;6.70;;;2.70;;
58896;SDS011;44677;52.378;10.400;2024-02-04T09:18:04;3.60;;;2.40;;
58896;SDS011;44677;52.378;10.400;2024-02-04T09:20:29;6.00;;;2.30;;
58896;SDS011;44677;52.378;10.400;2024-02-04T09:22:55;6.60;;;2.60;;
58896;SDS011;44677;52.378;10.400;2024-02-04T09:25:20;3.70;;;2.40;;
58896;SDS011;44677;52.378;10.400;2024-02-04T09:27:45;6.70;;;2.20;;
58896;SDS011;44677;52.378;10.400;2024-02-04T09:30:11;6.50;;;2.30;;
58896;SDS011;44677;52.378;10.400;2024-02-04T09:32:37;6.00;;;2.10;;
58896;SDS011;44677;52.378;10.400;2024-02-04T09:35:03;7.60;;;2.50;;
58896;SDS011;44677;52.378;10.400;2024-02-04T09:37:28;4.50;;;2.10;;
58896;SDS011;44677;52.378;10.400;2024-02-04T09:39:54;9.30;;;1.90;;
58896;SDS011;44677;52.378;10.400;2024-02-04T09:42:20;8.10;;;2.30;;
58896;SDS011;44677;52.378;10.400;2024-02-04T09:47:15;8.40;;;2.10;;
58896;SDS011;44677;52.378;10.400;2024-02-04T09:49:41;6.20;;;1.80;;
58896;SDS011;44677;52.378;10.400;2024-02-04T09:52:07;10.40;;;2.50;;
58896;SDS011;44677;52.378;10.400;2024-02-04T09:57:20;4.90;;;2.20;;
58896;SDS011;44677;52.378;10.400;2024-02-04T09:59:46;7.90;;;2.00;;
58896;SDS011;44677;52.378;10.400;2024-02-04T10:02:12;7.40;;;1.90;;
58896;SDS011;44677;52.378;10.400;2024-02-04T10:04:38;4.80;;;1.60;;
58896;SDS011;44677;52.378;10.400;2024-02-04T10:07:03;5.90;;;2.00;;
58896;SDS011;44677;52.378;10.400;2024-02-04T10:09:29;7.60;;;1.90;;
58896;SDS011;44677;52.378;10.400;2024-02-04T10:11:56;5.70;;;1.50;;
58896;SDS011;44677;52.378;10.400;2024-02-04T10:14:22;5.80;;;2.20;;
58896;SDS011;44677;52.378;10.400;2024-02-04T10:16:47;9.20;;;2.30;;
58896;SDS011;44677;52.378;10.400;2024-02-04T10:19:13;7.80;;;2.50;;
58896;SDS011;44677;52.378;10.400;2024-02-04T10:21:38;10.50;;;2.20;;
58896;SDS011;44677;52.378;10.400;2024-02-04T10:24:05;7.70;;;1.80;;
58896;SDS011;44677;52.378;10.400;2024-02-04T10:26:31;10.50;;;1.80;;
58896;SDS011;44677;52.378;10.400;2024-02-04T10:28:59;8.10;;;1.70;;
58896;SDS011;44677;52.378;10.400;2024-02-04T10:31:25;8.70;;;1.90;;
58896;SDS011;44677;52.378;10.400;2024-02-04T10:33:51;8.60;;;1.90;;
58896;SDS011;44677;52.378;10.400;2024-02-04T10:36:17;9.20;;;2.40;;
58896;SDS011;44677;52.378;10.400;2024-02-04T10:38:48;6.20;;;1.90;;
58896;SDS011;44677;52.378;10.400;2024-02-04T10:41:14;7.70;;;2.90;;
58896;SDS011;44677;52.378;10.400;2024-02-04T10:43:40;10.30;;;2.10;;
58896;SDS011;44677;52.378;10.400;2024-02-04T10:46:12;8.60;;;2.40;;
58896;SDS011;44677;52.378;10.400;2024-02-04T10:48:41;8.20;;;2.40;;
58896;SDS011;44677;52.378;10.400;2024-02-04T10:51:12;6.80;;;2.10;;
58896;SDS011;44677;52.378;10.400;2024-02-04T10:53:43;5.90;;;2.40;;
58896;SDS011;44677;52.378;10.400;2024-02-04T10:56:22;10.90;;;2.40;;
58896;SDS011;44677;52.378;10.400;2024-02-04T10:58:51;6.60;;;2.30;;
58896;SDS011;44677;52.378;10.400;2024-02-04T11:01:17;7.40;;;2.30;;
58896;SDS011;44677;52.378;10.400;2024-02-04T11:03:43;11.00;;;2.30;;
58896;SDS011;44677;52.378;10.400;2024-02-04T11:06:10;7.70;;;2.10;;
58896;SDS011;44677;52.378;10.400;2024-02-04T11:08:37;10.20;;;2.10;;
58896;SDS011;44677;52.378;10.400;2024-02-04T11:11:03;9.10;;;2.40;;
58896;SDS011;44677;52.378;10.400;2024-02-04T11:13:29;7.30;;;2.20;;
58896;SDS011;44677;52.378;10.400;2024-02-04T11:15:56;6.70;;;2.50;;
58896;SDS011;44677;52.378;10.400;2024-02-04T11:26:25;10.00;;;2.30;;
58896;SDS011;44677;52.378;10.400;2024-02-04T11:28:51;13.10;;;2.40;;
58896;SDS011;44677;52.378;10.400;2024-02-04T11:31:17;7.30;;;2.10;;
58896;SDS011;44677;52.378;10.400;2024-02-04T11:33:43;7.80;;;2.10;;
58896;SDS011;44677;52.378;10.400;2024-02-04T11:36:12;9.80;;;2.40;;
58896;SDS011;44677;52.378;10.400;2024-02-04T11:38:39;11.20;;;3.20;;
58896;SDS011;44677;52.378;10.400;2024-02-04T11:41:05;7.60;;;2.70;;
58896;SDS011;44677;52.378;10.400;2024-02-04T11:43:36;6.60;;;2.00;;
58896;SDS011;44677;52.378;10.400;2024-02-04T11:46:04;8.60;;;2.80;;
58896;SDS011;44677;52.378;10.400;2024-02-04T11:48:30;6.10;;;2.30;;
58896;SDS011;44677;52.378;10.400;2024-02-04T11:50:57;5.50;;;2.70;;
58896;SDS011;44677;52.378;10.400;2024-02-04T11:53:24;8.20;;;2.90;;
58896;SDS011;44677;52.378;10.400;2024-02-04T11:55:53;5.00;;;2.10;;
58896;SDS011;44677;52.378;10.400;2024-02-04T11:58:19;5.80;;;2.40;;
58896;SDS011;44677;52.378;10.400;2024-02-04T12:00:45;6.90;;;2.50;;
58896;SDS011;44677;52.378;10.400;2024-02-04T12:03:10;10.80;;;2.50;;
58896;SDS011;44677;52.378;10.400;2024-02-04T12:05:36;7.20;;;2.70;;
58896;SDS011;44677;52.378;10.400;2024-02-04T12:08:03;6.30;;;2.50;;
58896;SDS011;44677;52.378;10.400;2024-02-04T12:10:33;3.90;;;2.20;;
58896;SDS011;44677;52.378;10.400;2024-02-04T12:13:03;3.50;;;2.10;;
58896;SDS011;44677;52.378;10.400;2024-02-04T12:15:32;7.80;;;2.80;;
58896;SDS011;44677;52.378;10.400;2024-02-04T12:18:09;11.40;;;2.60;;
58896;SDS011;44677;52.378;10.400;2024-02-04T12:20:35;5.20;;;2.30;;
58896;SDS011;44677;52.378;10.400;2024-02-04T12:23:02;6.80;;;2.00;;
58896;SDS011;44677;52.378;10.400;2024-02-04T12:25:28;4.20;;;2.00;;
58896;SDS011;44677;52.378;10.400;2024-02-04T12:27:55;5.40;;;2.10;;
58896;SDS011;44677;52.378;10.400;2024-02-04T12:30:20;4.20;;;1.90;;
58896;SDS011;44677;52.378;10.400;2024-02-04T12:32:55;7.50;;;2.20;;
58896;SDS011;44677;52.378;10.400;2024-02-04T12:35:21;7.40;;;2.30;;
58896;SDS011;44677;52.378;10.400;2024-02-04T12:37:53;7.30;;;2.40;;
58896;SDS011;44677;52.378;10.400;2024-02-04T12:40:26;5.90;;;2.40;;
58896;SDS011;44677;52.378;10.400;2024-02-04T12:43:04;4.00;;;2.10;;
58896;SDS011;44677;52.378;10.400;2024-02-04T12:45:29;7.00;;;2.20;;
58896;SDS011;44677;52.378;10.400;2024-02-04T12:47:55;2.70;;;1.90;;
58896;SDS011;44677;52.378;10.400;2024-02-04T12:50:22;7.40;;;2.50;;
58896;SDS011;44677;52.378;10.400;2024-02-04T12:52:48;5.00;;;1.90;;
58896;SDS011;44677;52.378;10.400;2024-02-04T12:55:26;5.40;;;2.50;;
58896;SDS011;44677;52.378;10.400;2024-02-04T12:58:07;7.90;;;2.20;;
58896;SDS011;44677;52.378;10.400;2024-02-04T13:00:34;6.50;;;2.00;;
58896;SDS011;44677;52.378;10.400;2024-02-04T13:03:01;5.70;;;1.90;;
58896;SDS011;44677;52.378;10.400;2024-02-04T13:05:30;5.60;;;2.30;;
58896;SDS011;44677;52.378;10.400;2024-02-04T13:08:00;6.10;;;1.80;;
58896;SDS011;44677;52.378;10.400;2024-02-04T13:10:27;7.40;;;2.50;;
58896;SDS011;44677;52.378;10.400;2024-02-04T13:15:40;6.60;;;1.90;;
58896;SDS011;44677;52.378;10.400;2024-02-04T13:18:07;7.60;;;2.10;;
58896;SDS011;44677;52.378;10.400;2024-02-04T13:20:32;6.70;;;1.90;;
58896;SDS011;44677;52.378;10.400;2024-02-04T13:22:58;4.40;;;1.90;;
58896;SDS011;44677;52.378;10.400;2024-02-04T13:25:25;6.50;;;2.70;;
58896;SDS011;44677;52.378;10.400;2024-02-04T13:27:50;4.60;;;2.00;;
58896;SDS011;44677;52.378;10.400;2024-02-04T13:30:17;7.10;;;2.10;;
58896;SDS011;44677;52.378;10.400;2024-02-04T13:32:43;7.70;;;2.20;;
58896;SDS011;44677;52.378;10.400;2024-02-04T13:35:08;5.70;;;1.70;;
58896;SDS011;44677;52.378;10.400;2024-02-04T13:37:40;2.80;;;1.50;;
58896;SDS011;44677;52.378;10.400;2024-02-04T13:40:12;4.30;;;1.80;;
58896;SDS011;44677;52.378;10.400;2024-02-04T13:42:38;6.20;;;1.90;;
58896;SDS011;44677;52.378;10.400;2024-02-04T13:45:04;5.40;;;2.00;;
58896;SDS011;44677;52.378;10.400;2024-02-04T13:47:30;3.70;;;1.60;;
58896;SDS011;44677;52.378;10.400;2024-02-04T13:49:55;5.40;;;1.50;;
58896;SDS011;44677;52.378;10.400;2024-02-04T13:52:21;5.20;;;1.70;;
58896;SDS011;44677;52.378;10.400;2024-02-04T13:54:47;7.80;;;1.70;;
58896;SDS011;44677;52.378;10.400;2024-02-04T13:57:12;3.90;;;1.70;;
58896;SDS011;44677;52.378;10.400;2024-02-04T13:59:38;3.80;;;1.90;;
58896;SDS011;44677;52.378;10.400;2024-02-04T14:02:03;5.20;;;1.70;;
58896;SDS011;44677;52.378;10.400;2024-02-04T14:04:30;3.90;;;1.80;;
58896;SDS011;44677;52.378;10.400;2024-02-04T14:06:56;5.40;;;2.10;;
58896;SDS011;44677;52.378;10.400;2024-02-04T14:09:22;5.40;;;1.80;;
58896;SDS011;44677;52.378;10.400;2024-02-04T14:11:47;5.70;;;1.80;;
58896;SDS011;44677;52.378;10.400;2024-02-04T14:14:13;4.70;;;2.60;;
58896;SDS011;44677;52.378;10.400;2024-02-04T14:16:38;4.90;;;1.90;;
58896;SDS011;44677;52.378;10.400;2024-02-04T14:19:04;4.00;;;1.60;;
58896;SDS011;44677;52.378;10.400;2024-02-04T14:21:30;3.10;;;1.80;;
58896;SDS011;44677;52.378;10.400;2024-02-04T14:23:55;6.00;;;1.80;;
58896;SDS011;44677;52.378;10.400;2024-02-04T14:26:21;3.80;;;1.70;;
58896;SDS011;44677;52.378;10.400;2024-02-04T14:28:47;4.30;;;1.70;;
58896;SDS011;44677;52.378;10.400;2024-02-04T14:31:13;1.70;;;1.60;;
58896;SDS011;44677;52.378;10.400;2024-02-04T14:33:38;2.60;;;1.90;;
58896;SDS011;44677;52.378;10.400;2024-02-04T14:36:05;1.60;;;1.50;;
58896;SDS011;44677;52.378;10.400;2024-02-04T14:38:31;2.80;;;1.70;;
58896;SDS011;44677;52.378;10.400;2024-02-04T14:41:00;3.40;;;2.10;;
58896;SDS011;44677;52.378;10.400;2024-02-04T14:43:25;3.60;;;1.90;;
58896;SDS011;44677;52.378;10.400;2024-02-04T14:45:51;3.50;;;1.70;;
58896;SDS011;44677;52.378;10.400;2024-02-04T14:48:16;5.80;;;2.00;;
58896;SDS011;44677;52.378;10.400;2024-02-04T14:50:42;4.10;;;1.80;;